sensor_id;sensor_type;location;lat;lon;timestamp;P1;durP1;ratioP1;P2;durP2;ratioP2
5650;SDS011;40241;52.684;9.758;2023-04-02T00:07:40;4.87;;;1.60;;
5650;SDS011;40241;52.684;9.758;2023-04-02T00:13:24;4.37;;;1.80;;
5650;SDS011;40241;52.684;9.758;2023-04-02T00:16:22;1.57;;;1.43;;
5650;SDS011;40241;52.684;9.758;2023-04-02T00:18:50;5.17;;;1.63;;
5650;SDS011;40241;52.684;9.758;2023-04-02T00:23:46;2.80;;;1.17;;
5650;SDS011;40241;52.684;9.758;2023-04-02T00:29:06;2.00;;;1.60;;
5650;SDS011;40241;52.684;9.758;2023-04-02T00:31:35;3.67;;;1.57;;
5650;SDS011;40241;52.684;9.758;2023-04-02T00:34:05;2.03;;;1.00;;
5650;SDS011;40241;52.684;9.758;2023-04-02T00:36:32;2.70;;;1.83;;
5650;SDS011;40241;52.684;9.758;2023-04-02T00:38:59;6.80;;;1.70;;
5650;SDS011;40241;52.684;9.758;2023-04-02T00:41:28;1.53;;;1.40;;
5650;SDS011;40241;52.684;9.758;2023-04-02T00:43:56;2.20;;;1.20;;
5650;SDS011;40241;52.684;9.758;2023-04-02T00:46:38;1.77;;;1.37;;
5650;SDS011;40241;52.684;9.758;2023-04-02T00:49:44;2.87;;;1.30;;
5650;SDS011;40241;52.684;9.758;2023-04-02T00:52:05;2.37;;;1.80;;
5650;SDS011;40241;52.684;9.758;2023-04-02T00:54:41;5.03;;;1.03;;
5650;SDS011;40241;52.684;9.758;2023-04-02T00:57:12;2.77;;;1.50;;
5650;SDS011;40241;52.684;9.758;2023-04-02T00:59:58;2.90;;;1.50;;
5650;SDS011;40241;52.684;9.758;2023-04-02T01:02:32;3.27;;;1.20;;
5650;SDS011;40241;52.684;9.758;2023-04-02T01:13:02;2.73;;;1.63;;
5650;SDS011;40241;52.684;9.758;2023-04-02T01:15:39;1.43;;;1.17;;
5650;SDS011;40241;52.684;9.758;2023-04-02T01:29:14;5.50;;;1.53;;
5650;SDS011;40241;52.684;9.758;2023-04-02T01:31:43;1.77;;;1.20;;
5650;SDS011;40241;52.684;9.758;2023-04-02T01:34:11;1.73;;;1.00;;
5650;SDS011;40241;52.684;9.758;2023-04-02T01:42:20;1.27;;;1.17;;
5650;SDS011;40241;52.684;9.758;2023-04-02T01:44:49;3.30;;;1.00;;
5650;SDS011;40241;52.684;9.758;2023-04-02T01:47:24;3.13;;;1.20;;
5650;SDS011;40241;52.684;9.758;2023-04-02T01:49:55;2.23;;;1.40;;
5650;SDS011;40241;52.684;9.758;2023-04-02T01:52:32;3.33;;;1.10;;
5650;SDS011;40241;52.684;9.758;2023-04-02T01:55:00;3.33;;;1.03;;
5650;SDS011;40241;52.684;9.758;2023-04-02T01:57:27;1.13;;;0.80;;
5650;SDS011;40241;52.684;9.758;2023-04-02T01:59:53;4.70;;;1.10;;
5650;SDS011;40241;52.684;9.758;2023-04-02T02:02:19;1.13;;;0.80;;
5650;SDS011;40241;52.684;9.758;2023-04-02T02:04:45;3.87;;;1.00;;
5650;SDS011;40241;52.684;9.758;2023-04-02T02:07:15;1.87;;;1.00;;
5650;SDS011;40241;52.684;9.758;2023-04-02T02:09:43;2.33;;;0.63;;
5650;SDS011;40241;52.684;9.758;2023-04-02T02:12:13;1.97;;;0.90;;
5650;SDS011;40241;52.684;9.758;2023-04-02T02:14:44;1.90;;;1.17;;
5650;SDS011;40241;52.684;9.758;2023-04-02T02:17:13;5.73;;;1.10;;
5650;SDS011;40241;52.684;9.758;2023-04-02T02:22:17;1.93;;;0.60;;
5650;SDS011;40241;52.684;9.758;2023-04-02T02:24:47;2.87;;;0.80;;
5650;SDS011;40241;52.684;9.758;2023-04-02T02:29:45;2.53;;;1.00;;
5650;SDS011;40241;52.684;9.758;2023-04-02T02:32:15;2.20;;;0.70;;
5650;SDS011;40241;52.684;9.758;2023-04-02T02:34:47;1.87;;;0.90;;
5650;SDS011;40241;52.684;9.758;2023-04-02T02:37:22;1.20;;;0.90;;
5650;SDS011;40241;52.684;9.758;2023-04-02T02:39:52;2.43;;;0.73;;
5650;SDS011;40241;52.684;9.758;2023-04-02T02:45:09;1.83;;;0.63;;
5650;SDS011;40241;52.684;9.758;2023-04-02T02:47:39;2.07;;;0.80;;
5650;SDS011;40241;52.684;9.758;2023-04-02T02:50:10;3.60;;;0.63;;
5650;SDS011;40241;52.684;9.758;2023-04-02T02:52:44;1.00;;;0.70;;
5650;SDS011;40241;52.684;9.758;2023-04-02T02:55:15;1.90;;;1.00;;
5650;SDS011;40241;52.684;9.758;2023-04-02T02:57:54;2.50;;;1.10;;
5650;SDS011;40241;52.684;9.758;2023-04-02T03:00:25;2.00;;;0.90;;
5650;SDS011;40241;52.684;9.758;2023-04-02T03:02:50;0.93;;;0.70;;
5650;SDS011;40241;52.684;9.758;2023-04-02T03:05:23;1.13;;;0.70;;
5650;SDS011;40241;52.684;9.758;2023-04-02T03:07:52;2.93;;;0.83;;
5650;SDS011;40241;52.684;9.758;2023-04-02T03:16:08;2.43;;;0.77;;
5650;SDS011;40241;52.684;9.758;2023-04-02T03:18:44;2.50;;;0.63;;
5650;SDS011;40241;52.684;9.758;2023-04-02T03:21:20;1.53;;;0.67;;
5650;SDS011;40241;52.684;9.758;2023-04-02T03:23:56;3.17;;;0.90;;
5650;SDS011;40241;52.684;9.758;2023-04-02T03:26:33;1.43;;;0.77;;
5650;SDS011;40241;52.684;9.758;2023-04-02T03:29:05;0.93;;;0.63;;
5650;SDS011;40241;52.684;9.758;2023-04-02T03:31:59;5.80;;;1.10;;
5650;SDS011;40241;52.684;9.758;2023-04-02T03:34:34;2.27;;;0.57;;
5650;SDS011;40241;52.684;9.758;2023-04-02T03:37:19;2.00;;;1.03;;
5650;SDS011;40241;52.684;9.758;2023-04-02T03:42:41;0.87;;;0.70;;
5650;SDS011;40241;52.684;9.758;2023-04-02T03:45:14;1.53;;;0.87;;
5650;SDS011;40241;52.684;9.758;2023-04-02T03:47:44;2.60;;;0.90;;
5650;SDS011;40241;52.684;9.758;2023-04-02T03:50:17;1.97;;;0.80;;
5650;SDS011;40241;52.684;9.758;2023-04-02T03:52:50;2.17;;;0.80;;
5650;SDS011;40241;52.684;9.758;2023-04-02T03:58:26;1.47;;;0.87;;
5650;SDS011;40241;52.684;9.758;2023-04-02T04:01:25;0.70;;;0.70;;
5650;SDS011;40241;52.684;9.758;2023-04-02T04:03:42;1.70;;;1.13;;
5650;SDS011;40241;52.684;9.758;2023-04-02T04:08:47;1.17;;;0.70;;
5650;SDS011;40241;52.684;9.758;2023-04-02T04:11:20;0.70;;;0.70;;
5650;SDS011;40241;52.684;9.758;2023-04-02T04:22:17;5.27;;;0.90;;
5650;SDS011;40241;52.684;9.758;2023-04-02T04:24:54;0.70;;;0.60;;
5650;SDS011;40241;52.684;9.758;2023-04-02T04:27:26;1.00;;;0.90;;
5650;SDS011;40241;52.684;9.758;2023-04-02T04:30:05;1.33;;;0.60;;
5650;SDS011;40241;52.684;9.758;2023-04-02T04:32:49;1.67;;;0.80;;
5650;SDS011;40241;52.684;9.758;2023-04-02T04:35:24;2.93;;;0.80;;
5650;SDS011;40241;52.684;9.758;2023-04-02T04:37:55;3.03;;;0.60;;
5650;SDS011;40241;52.684;9.758;2023-04-02T04:40:31;1.00;;;0.47;;
5650;SDS011;40241;52.684;9.758;2023-04-02T04:43:06;1.43;;;0.80;;
5650;SDS011;40241;52.684;9.758;2023-04-02T04:45:41;2.10;;;0.87;;
5650;SDS011;40241;52.684;9.758;2023-04-02T04:48:20;1.30;;;1.00;;
5650;SDS011;40241;52.684;9.758;2023-04-02T04:53:32;1.00;;;0.70;;
5650;SDS011;40241;52.684;9.758;2023-04-02T04:56:09;5.17;;;0.70;;
5650;SDS011;40241;52.684;9.758;2023-04-02T04:58:47;0.90;;;0.70;;
5650;SDS011;40241;52.684;9.758;2023-04-02T05:01:25;0.67;;;0.60;;
5650;SDS011;40241;52.684;9.758;2023-04-02T05:06:51;4.23;;;0.87;;
5650;SDS011;40241;52.684;9.758;2023-04-02T05:09:22;0.90;;;0.57;;
5650;SDS011;40241;52.684;9.758;2023-04-02T05:14:32;1.37;;;0.80;;
5650;SDS011;40241;52.684;9.758;2023-04-02T05:17:03;0.80;;;0.80;;
5650;SDS011;40241;52.684;9.758;2023-04-02T05:19:38;4.13;;;1.17;;
5650;SDS011;40241;52.684;9.758;2023-04-02T05:27:54;1.20;;;0.80;;
5650;SDS011;40241;52.684;9.758;2023-04-02T05:32:59;1.07;;;0.60;;
5650;SDS011;40241;52.684;9.758;2023-04-02T05:35:33;0.87;;;0.60;;
5650;SDS011;40241;52.684;9.758;2023-04-02T05:38:00;4.13;;;0.73;;
5650;SDS011;40241;52.684;9.758;2023-04-02T05:40:28;2.73;;;0.83;;
5650;SDS011;40241;52.684;9.758;2023-04-02T05:42:57;2.97;;;1.10;;
5650;SDS011;40241;52.684;9.758;2023-04-02T05:45:36;1.80;;;0.80;;
5650;SDS011;40241;52.684;9.758;2023-04-02T05:48:08;2.47;;;0.80;;
5650;SDS011;40241;52.684;9.758;2023-04-02T05:50:43;2.50;;;1.03;;
5650;SDS011;40241;52.684;9.758;2023-04-02T05:53:16;1.00;;;0.50;;
5650;SDS011;40241;52.684;9.758;2023-04-02T05:58:23;2.63;;;0.77;;
5650;SDS011;40241;52.684;9.758;2023-04-02T06:01:01;1.33;;;0.70;;
5650;SDS011;40241;52.684;9.758;2023-04-02T06:06:18;1.43;;;0.70;;
5650;SDS011;40241;52.684;9.758;2023-04-02T06:09:01;3.23;;;0.83;;
5650;SDS011;40241;52.684;9.758;2023-04-02T06:11:38;1.20;;;0.90;;
5650;SDS011;40241;52.684;9.758;2023-04-02T06:14:13;0.90;;;0.83;;
5650;SDS011;40241;52.684;9.758;2023-04-02T06:16:40;3.27;;;0.83;;
5650;SDS011;40241;52.684;9.758;2023-04-02T06:19:12;2.70;;;0.77;;
5650;SDS011;40241;52.684;9.758;2023-04-02T06:21:44;2.27;;;0.60;;
5650;SDS011;40241;52.684;9.758;2023-04-02T06:24:10;0.50;;;0.50;;
5650;SDS011;40241;52.684;9.758;2023-04-02T06:26:40;0.53;;;0.53;;
5650;SDS011;40241;52.684;9.758;2023-04-02T06:31:49;0.93;;;0.50;;
5650;SDS011;40241;52.684;9.758;2023-04-02T06:34:19;1.80;;;0.60;;
5650;SDS011;40241;52.684;9.758;2023-04-02T06:36:47;2.10;;;0.80;;
5650;SDS011;40241;52.684;9.758;2023-04-02T06:39:19;2.00;;;0.90;;
5650;SDS011;40241;52.684;9.758;2023-04-02T06:41:52;1.57;;;0.80;;
5650;SDS011;40241;52.684;9.758;2023-04-02T06:44:21;2.13;;;0.80;;
5650;SDS011;40241;52.684;9.758;2023-04-02T06:46:53;1.27;;;0.60;;
5650;SDS011;40241;52.684;9.758;2023-04-02T06:52:03;1.87;;;0.80;;
5650;SDS011;40241;52.684;9.758;2023-04-02T06:54:30;0.90;;;0.70;;
5650;SDS011;40241;52.684;9.758;2023-04-02T06:56:55;0.90;;;0.70;;
5650;SDS011;40241;52.684;9.758;2023-04-02T06:59:21;0.70;;;0.60;;
5650;SDS011;40241;52.684;9.758;2023-04-02T07:01:51;1.20;;;0.60;;
5650;SDS011;40241;52.684;9.758;2023-04-02T07:04:18;1.70;;;1.07;;
5650;SDS011;40241;52.684;9.758;2023-04-02T07:06:45;2.13;;;0.87;;
5650;SDS011;40241;52.684;9.758;2023-04-02T07:09:10;1.37;;;0.60;;
5650;SDS011;40241;52.684;9.758;2023-04-02T07:11:36;4.53;;;0.87;;
5650;SDS011;40241;52.684;9.758;2023-04-02T07:14:01;0.50;;;0.50;;
5650;SDS011;40241;52.684;9.758;2023-04-02T07:16:28;1.50;;;0.60;;
5650;SDS011;40241;52.684;9.758;2023-04-02T07:18:56;1.63;;;0.60;;
5650;SDS011;40241;52.684;9.758;2023-04-02T07:21:23;0.60;;;0.50;;
5650;SDS011;40241;52.684;9.758;2023-04-02T07:23:50;7.63;;;0.70;;
5650;SDS011;40241;52.684;9.758;2023-04-02T07:26:17;0.77;;;0.50;;
5650;SDS011;40241;52.684;9.758;2023-04-02T07:28:46;0.60;;;0.60;;
5650;SDS011;40241;52.684;9.758;2023-04-02T07:33:44;2.10;;;0.60;;
5650;SDS011;40241;52.684;9.758;2023-04-02T07:36:14;2.00;;;0.83;;
5650;SDS011;40241;52.684;9.758;2023-04-02T07:38:44;1.03;;;0.80;;
5650;SDS011;40241;52.684;9.758;2023-04-02T07:41:10;0.50;;;0.50;;
5650;SDS011;40241;52.684;9.758;2023-04-02T07:43:37;3.17;;;0.60;;
5650;SDS011;40241;52.684;9.758;2023-04-02T07:46:03;1.10;;;0.60;;
5650;SDS011;40241;52.684;9.758;2023-04-02T07:48:29;3.70;;;0.50;;
5650;SDS011;40241;52.684;9.758;2023-04-02T07:50:55;3.03;;;0.50;;
5650;SDS011;40241;52.684;9.758;2023-04-02T07:53:31;1.83;;;0.80;;
5650;SDS011;40241;52.684;9.758;2023-04-02T07:55:58;0.80;;;0.60;;
5650;SDS011;40241;52.684;9.758;2023-04-02T07:58:25;2.23;;;0.50;;
5650;SDS011;40241;52.684;9.758;2023-04-02T08:00:51;6.23;;;0.70;;
5650;SDS011;40241;52.684;9.758;2023-04-02T08:03:16;0.70;;;0.70;;
5650;SDS011;40241;52.684;9.758;2023-04-02T08:05:41;0.60;;;0.60;;
5650;SDS011;40241;52.684;9.758;2023-04-02T08:08:07;3.07;;;0.70;;
5650;SDS011;40241;52.684;9.758;2023-04-02T08:10:32;1.43;;;0.60;;
5650;SDS011;40241;52.684;9.758;2023-04-02T08:12:58;2.57;;;0.83;;
5650;SDS011;40241;52.684;9.758;2023-04-02T08:15:23;3.60;;;0.60;;
5650;SDS011;40241;52.684;9.758;2023-04-02T08:17:48;0.63;;;0.60;;
5650;SDS011;40241;52.684;9.758;2023-04-02T08:20:17;0.93;;;0.50;;
5650;SDS011;40241;52.684;9.758;2023-04-02T08:22:45;1.90;;;0.60;;
5650;SDS011;40241;52.684;9.758;2023-04-02T08:25:11;3.13;;;0.67;;
5650;SDS011;40241;52.684;9.758;2023-04-02T08:27:37;2.67;;;0.80;;
5650;SDS011;40241;52.684;9.758;2023-04-02T08:30:03;1.03;;;0.60;;
5650;SDS011;40241;52.684;9.758;2023-04-02T08:32:29;1.03;;;0.40;;
5650;SDS011;40241;52.684;9.758;2023-04-02T08:34:54;0.57;;;0.40;;
5650;SDS011;40241;52.684;9.758;2023-04-02T08:37:20;1.20;;;0.60;;
5650;SDS011;40241;52.684;9.758;2023-04-02T08:39:45;0.73;;;0.60;;
5650;SDS011;40241;52.684;9.758;2023-04-02T08:45:22;1.27;;;0.80;;
5650;SDS011;40241;52.684;9.758;2023-04-02T08:47:56;0.77;;;0.50;;
5650;SDS011;40241;52.684;9.758;2023-04-02T08:50:40;1.10;;;0.63;;
5650;SDS011;40241;52.684;9.758;2023-04-02T08:53:09;1.23;;;0.57;;
5650;SDS011;40241;52.684;9.758;2023-04-02T08:55:44;0.60;;;0.47;;
5650;SDS011;40241;52.684;9.758;2023-04-02T08:58:55;2.60;;;0.73;;
5650;SDS011;40241;52.684;9.758;2023-04-02T09:01:28;3.20;;;0.83;;
5650;SDS011;40241;52.684;9.758;2023-04-02T09:03:57;3.40;;;0.53;;
5650;SDS011;40241;52.684;9.758;2023-04-02T09:06:23;0.90;;;0.50;;
5650;SDS011;40241;52.684;9.758;2023-04-02T09:08:50;3.27;;;0.70;;
5650;SDS011;40241;52.684;9.758;2023-04-02T09:13:57;1.03;;;0.60;;
5650;SDS011;40241;52.684;9.758;2023-04-02T09:16:58;2.10;;;0.63;;
5650;SDS011;40241;52.684;9.758;2023-04-02T09:19:24;0.87;;;0.63;;
5650;SDS011;40241;52.684;9.758;2023-04-02T09:24:26;3.03;;;0.60;;
5650;SDS011;40241;52.684;9.758;2023-04-02T09:26:51;0.50;;;0.50;;
5650;SDS011;40241;52.684;9.758;2023-04-02T09:32:01;2.10;;;0.60;;
5650;SDS011;40241;52.684;9.758;2023-04-02T09:34:46;2.50;;;0.50;;
5650;SDS011;40241;52.684;9.758;2023-04-02T09:39:41;2.33;;;0.87;;
5650;SDS011;40241;52.684;9.758;2023-04-02T09:47:36;1.37;;;0.90;;
5650;SDS011;40241;52.684;9.758;2023-04-02T09:50:14;2.63;;;0.70;;
5650;SDS011;40241;52.684;9.758;2023-04-02T09:52:43;1.30;;;0.70;;
5650;SDS011;40241;52.684;9.758;2023-04-02T09:55:16;0.63;;;0.50;;
5650;SDS011;40241;52.684;9.758;2023-04-02T09:57:45;1.27;;;0.70;;
5650;SDS011;40241;52.684;9.758;2023-04-02T10:02:37;1.30;;;0.93;;
5650;SDS011;40241;52.684;9.758;2023-04-02T10:05:05;1.30;;;0.70;;
5650;SDS011;40241;52.684;9.758;2023-04-02T10:07:43;1.13;;;0.63;;
5650;SDS011;40241;52.684;9.758;2023-04-02T10:12:58;2.20;;;0.60;;
5650;SDS011;40241;52.684;9.758;2023-04-02T10:15:28;1.57;;;0.40;;
5650;SDS011;40241;52.684;9.758;2023-04-02T10:18:05;1.13;;;0.80;;
5650;SDS011;40241;52.684;9.758;2023-04-02T10:20:37;0.60;;;0.50;;
5650;SDS011;40241;52.684;9.758;2023-04-02T10:23:07;1.40;;;0.50;;
5650;SDS011;40241;52.684;9.758;2023-04-02T10:25:40;0.90;;;0.60;;
5650;SDS011;40241;52.684;9.758;2023-04-02T10:31:13;0.70;;;0.50;;
5650;SDS011;40241;52.684;9.758;2023-04-02T10:33:49;1.20;;;0.83;;
5650;SDS011;40241;52.684;9.758;2023-04-02T10:41:29;1.53;;;0.60;;
5650;SDS011;40241;52.684;9.758;2023-04-02T10:44:01;1.50;;;0.67;;
5650;SDS011;40241;52.684;9.758;2023-04-02T10:47:06;2.03;;;0.70;;
5650;SDS011;40241;52.684;9.758;2023-04-02T10:52:33;0.60;;;0.57;;
5650;SDS011;40241;52.684;9.758;2023-04-02T10:55:12;1.00;;;0.63;;
5650;SDS011;40241;52.684;9.758;2023-04-02T10:57:41;1.27;;;0.50;;
5650;SDS011;40241;52.684;9.758;2023-04-02T11:05:21;1.60;;;0.83;;
5650;SDS011;40241;52.684;9.758;2023-04-02T11:08:23;1.33;;;0.90;;
5650;SDS011;40241;52.684;9.758;2023-04-02T11:11:05;2.47;;;0.50;;
5650;SDS011;40241;52.684;9.758;2023-04-02T11:13:40;1.60;;;0.60;;
5650;SDS011;40241;52.684;9.758;2023-04-02T11:16:16;0.60;;;0.60;;
5650;SDS011;40241;52.684;9.758;2023-04-02T11:18:42;2.03;;;0.73;;
5650;SDS011;40241;52.684;9.758;2023-04-02T11:24:04;0.63;;;0.60;;
5650;SDS011;40241;52.684;9.758;2023-04-02T11:26:31;0.97;;;0.50;;
5650;SDS011;40241;52.684;9.758;2023-04-02T11:29:28;1.03;;;0.40;;
5650;SDS011;40241;52.684;9.758;2023-04-02T11:32:13;1.87;;;0.53;;
5650;SDS011;40241;52.684;9.758;2023-04-02T11:37:32;0.87;;;0.60;;
5650;SDS011;40241;52.684;9.758;2023-04-02T11:42:46;1.27;;;0.60;;
5650;SDS011;40241;52.684;9.758;2023-04-02T11:52:53;1.60;;;0.87;;
5650;SDS011;40241;52.684;9.758;2023-04-02T11:55:23;1.07;;;0.63;;
5650;SDS011;40241;52.684;9.758;2023-04-02T12:00:48;0.60;;;0.40;;
5650;SDS011;40241;52.684;9.758;2023-04-02T12:09:19;0.60;;;0.50;;
5650;SDS011;40241;52.684;9.758;2023-04-02T12:11:51;1.30;;;0.50;;
5650;SDS011;40241;52.684;9.758;2023-04-02T12:14:40;1.00;;;0.70;;
5650;SDS011;40241;52.684;9.758;2023-04-02T12:17:17;0.70;;;0.57;;
5650;SDS011;40241;52.684;9.758;2023-04-02T12:19:52;0.70;;;0.40;;
5650;SDS011;40241;52.684;9.758;2023-04-02T12:22:27;0.57;;;0.47;;
5650;SDS011;40241;52.684;9.758;2023-04-02T12:24:57;1.60;;;0.87;;
5650;SDS011;40241;52.684;9.758;2023-04-02T12:27:25;1.10;;;0.57;;
5650;SDS011;40241;52.684;9.758;2023-04-02T12:29:54;2.10;;;0.50;;
5650;SDS011;40241;52.684;9.758;2023-04-02T12:34:51;0.97;;;0.53;;
5650;SDS011;40241;52.684;9.758;2023-04-02T12:37:22;1.10;;;0.40;;
5650;SDS011;40241;52.684;9.758;2023-04-02T12:39:50;1.00;;;0.50;;
5650;SDS011;40241;52.684;9.758;2023-04-02T12:42:38;1.07;;;0.57;;
5650;SDS011;40241;52.684;9.758;2023-04-02T12:45:04;0.70;;;0.60;;
5650;SDS011;40241;52.684;9.758;2023-04-02T12:47:30;0.70;;;0.50;;
5650;SDS011;40241;52.684;9.758;2023-04-02T12:49:57;1.10;;;0.60;;
5650;SDS011;40241;52.684;9.758;2023-04-02T12:52:25;1.30;;;0.50;;
5650;SDS011;40241;52.684;9.758;2023-04-02T12:59:55;0.60;;;0.40;;
5650;SDS011;40241;52.684;9.758;2023-04-02T13:02:22;1.93;;;0.70;;
5650;SDS011;40241;52.684;9.758;2023-04-02T13:04:53;1.10;;;0.50;;
5650;SDS011;40241;52.684;9.758;2023-04-02T13:07:21;1.37;;;0.50;;
5650;SDS011;40241;52.684;9.758;2023-04-02T13:09:50;0.93;;;0.60;;
5650;SDS011;40241;52.684;9.758;2023-04-02T13:12:24;1.53;;;0.70;;
5650;SDS011;40241;52.684;9.758;2023-04-02T13:14:56;1.20;;;0.67;;
5650;SDS011;40241;52.684;9.758;2023-04-02T13:17:35;2.93;;;0.60;;
5650;SDS011;40241;52.684;9.758;2023-04-02T13:22:57;0.50;;;0.40;;
5650;SDS011;40241;52.684;9.758;2023-04-02T13:25:29;1.10;;;0.50;;
5650;SDS011;40241;52.684;9.758;2023-04-02T13:27:56;0.50;;;0.40;;
5650;SDS011;40241;52.684;9.758;2023-04-02T13:30:23;0.60;;;0.40;;
5650;SDS011;40241;52.684;9.758;2023-04-02T13:32:50;1.13;;;0.40;;
5650;SDS011;40241;52.684;9.758;2023-04-02T13:35:15;1.80;;;0.63;;
5650;SDS011;40241;52.684;9.758;2023-04-02T13:37:41;3.67;;;0.67;;
5650;SDS011;40241;52.684;9.758;2023-04-02T13:40:11;2.30;;;0.60;;
5650;SDS011;40241;52.684;9.758;2023-04-02T13:42:38;1.67;;;0.90;;
5650;SDS011;40241;52.684;9.758;2023-04-02T13:45:07;1.00;;;0.60;;
5650;SDS011;40241;52.684;9.758;2023-04-02T13:47:44;0.60;;;0.40;;
5650;SDS011;40241;52.684;9.758;2023-04-02T13:50:14;0.60;;;0.60;;
5650;SDS011;40241;52.684;9.758;2023-04-02T13:52:44;0.50;;;0.40;;
5650;SDS011;40241;52.684;9.758;2023-04-02T13:55:10;2.00;;;1.30;;
5650;SDS011;40241;52.684;9.758;2023-04-02T13:57:37;0.90;;;0.80;;
5650;SDS011;40241;52.684;9.758;2023-04-02T14:00:03;1.47;;;0.63;;
5650;SDS011;40241;52.684;9.758;2023-04-02T14:02:29;2.00;;;0.73;;
5650;SDS011;40241;52.684;9.758;2023-04-02T14:18:47;0.93;;;0.40;;
5650;SDS011;40241;52.684;9.758;2023-04-02T14:26:34;0.63;;;0.40;;
5650;SDS011;40241;52.684;9.758;2023-04-02T14:31:52;2.17;;;0.50;;
5650;SDS011;40241;52.684;9.758;2023-04-02T14:50:45;1.07;;;0.43;;
5650;SDS011;40241;52.684;9.758;2023-04-02T14:53:35;0.70;;;0.60;;
5650;SDS011;40241;52.684;9.758;2023-04-02T14:56:09;0.50;;;0.40;;
5650;SDS011;40241;52.684;9.758;2023-04-02T14:58:38;0.60;;;0.50;;
5650;SDS011;40241;52.684;9.758;2023-04-02T15:01:16;0.60;;;0.47;;
5650;SDS011;40241;52.684;9.758;2023-04-02T15:06:20;3.50;;;0.70;;
5650;SDS011;40241;52.684;9.758;2023-04-02T15:08:53;2.00;;;0.63;;
5650;SDS011;40241;52.684;9.758;2023-04-02T15:11:28;0.87;;;0.50;;
5650;SDS011;40241;52.684;9.758;2023-04-02T15:16:49;0.80;;;0.60;;
5650;SDS011;40241;52.684;9.758;2023-04-02T15:19:15;2.03;;;0.60;;
5650;SDS011;40241;52.684;9.758;2023-04-02T15:21:53;1.10;;;0.53;;
5650;SDS011;40241;52.684;9.758;2023-04-02T15:24:30;1.53;;;0.83;;
5650;SDS011;40241;52.684;9.758;2023-04-02T15:32:47;0.77;;;0.40;;
5650;SDS011;40241;52.684;9.758;2023-04-02T15:37:48;0.93;;;0.60;;
5650;SDS011;40241;52.684;9.758;2023-04-02T16:02:49;0.90;;;0.40;;
5650;SDS011;40241;52.684;9.758;2023-04-02T16:08:31;0.80;;;0.40;;
5650;SDS011;40241;52.684;9.758;2023-04-02T16:11:37;0.87;;;0.67;;
5650;SDS011;40241;52.684;9.758;2023-04-02T16:16:35;0.50;;;0.40;;
5650;SDS011;40241;52.684;9.758;2023-04-02T16:21:42;1.00;;;0.40;;
5650;SDS011;40241;52.684;9.758;2023-04-02T16:24:13;1.17;;;0.97;;
5650;SDS011;40241;52.684;9.758;2023-04-02T16:29:31;1.33;;;0.80;;
5650;SDS011;40241;52.684;9.758;2023-04-02T16:35:44;0.50;;;0.50;;
5650;SDS011;40241;52.684;9.758;2023-04-02T16:37:53;2.17;;;0.77;;
5650;SDS011;40241;52.684;9.758;2023-04-02T16:40:45;0.90;;;0.60;;
5650;SDS011;40241;52.684;9.758;2023-04-02T16:46:14;1.23;;;0.60;;
5650;SDS011;40241;52.684;9.758;2023-04-02T16:51:30;2.13;;;0.70;;
5650;SDS011;40241;52.684;9.758;2023-04-02T17:02:25;1.83;;;1.63;;
5650;SDS011;40241;52.684;9.758;2023-04-02T17:08:24;1.50;;;1.40;;
5650;SDS011;40241;52.684;9.758;2023-04-02T17:13:38;2.23;;;0.67;;
5650;SDS011;40241;52.684;9.758;2023-04-02T17:16:17;1.47;;;0.80;;
5650;SDS011;40241;52.684;9.758;2023-04-02T17:18:55;1.30;;;0.60;;
5650;SDS011;40241;52.684;9.758;2023-04-02T17:21:26;2.03;;;0.80;;
5650;SDS011;40241;52.684;9.758;2023-04-02T17:23:53;1.87;;;0.90;;
5650;SDS011;40241;52.684;9.758;2023-04-02T17:26:26;1.77;;;0.60;;
5650;SDS011;40241;52.684;9.758;2023-04-02T17:28:53;0.87;;;0.60;;
5650;SDS011;40241;52.684;9.758;2023-04-02T17:31:23;4.80;;;0.73;;
5650;SDS011;40241;52.684;9.758;2023-04-02T17:33:50;0.70;;;0.70;;
5650;SDS011;40241;52.684;9.758;2023-04-02T17:39:41;0.80;;;0.70;;
5650;SDS011;40241;52.684;9.758;2023-04-02T17:59:20;0.57;;;0.53;;
5650;SDS011;40241;52.684;9.758;2023-04-02T18:10:14;1.33;;;0.60;;
5650;SDS011;40241;52.684;9.758;2023-04-02T18:20:38;0.80;;;0.67;;
5650;SDS011;40241;52.684;9.758;2023-04-02T18:35:05;2.30;;;0.40;;
5650;SDS011;40241;52.684;9.758;2023-04-02T18:37:53;1.37;;;0.80;;
5650;SDS011;40241;52.684;9.758;2023-04-02T18:46:03;3.03;;;1.07;;
5650;SDS011;40241;52.684;9.758;2023-04-02T18:51:21;2.17;;;0.70;;
5650;SDS011;40241;52.684;9.758;2023-04-02T18:53:49;1.70;;;0.50;;
5650;SDS011;40241;52.684;9.758;2023-04-02T18:56:19;0.70;;;0.70;;
5650;SDS011;40241;52.684;9.758;2023-04-02T19:01:26;0.93;;;0.60;;
5650;SDS011;40241;52.684;9.758;2023-04-02T19:04:05;1.83;;;0.80;;
5650;SDS011;40241;52.684;9.758;2023-04-02T19:06:40;1.20;;;0.73;;
5650;SDS011;40241;52.684;9.758;2023-04-02T19:09:25;2.30;;;0.70;;
5650;SDS011;40241;52.684;9.758;2023-04-02T19:11:55;1.07;;;0.93;;
5650;SDS011;40241;52.684;9.758;2023-04-02T19:14:21;1.53;;;0.63;;
5650;SDS011;40241;52.684;9.758;2023-04-02T19:30:36;4.67;;;0.70;;
5650;SDS011;40241;52.684;9.758;2023-04-02T19:41:39;1.47;;;0.73;;
5650;SDS011;40241;52.684;9.758;2023-04-02T19:44:12;1.27;;;0.80;;
5650;SDS011;40241;52.684;9.758;2023-04-02T19:46:39;6.57;;;1.20;;
5650;SDS011;40241;52.684;9.758;2023-04-02T19:49:09;1.50;;;0.93;;
5650;SDS011;40241;52.684;9.758;2023-04-02T19:51:39;2.50;;;1.10;;
5650;SDS011;40241;52.684;9.758;2023-04-02T19:54:04;1.10;;;0.60;;
5650;SDS011;40241;52.684;9.758;2023-04-02T19:56:29;2.03;;;0.87;;
5650;SDS011;40241;52.684;9.758;2023-04-02T19:58:55;2.10;;;0.70;;
5650;SDS011;40241;52.684;9.758;2023-04-02T20:01:20;3.37;;;0.50;;
5650;SDS011;40241;52.684;9.758;2023-04-02T20:03:46;2.20;;;0.80;;
5650;SDS011;40241;52.684;9.758;2023-04-02T20:06:11;2.43;;;0.60;;
5650;SDS011;40241;52.684;9.758;2023-04-02T20:08:37;4.33;;;0.80;;
5650;SDS011;40241;52.684;9.758;2023-04-02T20:11:02;3.17;;;0.60;;
5650;SDS011;40241;52.684;9.758;2023-04-02T20:13:28;1.83;;;0.73;;
5650;SDS011;40241;52.684;9.758;2023-04-02T20:15:53;0.63;;;0.53;;
5650;SDS011;40241;52.684;9.758;2023-04-02T20:18:23;1.00;;;0.60;;
5650;SDS011;40241;52.684;9.758;2023-04-02T20:20:49;1.30;;;0.60;;
5650;SDS011;40241;52.684;9.758;2023-04-02T20:23:15;0.93;;;0.40;;
5650;SDS011;40241;52.684;9.758;2023-04-02T20:25:44;1.33;;;0.90;;
5650;SDS011;40241;52.684;9.758;2023-04-02T20:28:11;2.40;;;0.50;;
5650;SDS011;40241;52.684;9.758;2023-04-02T20:30:36;0.50;;;0.50;;
5650;SDS011;40241;52.684;9.758;2023-04-02T20:33:01;0.97;;;0.50;;
5650;SDS011;40241;52.684;9.758;2023-04-02T20:35:27;0.83;;;0.70;;
5650;SDS011;40241;52.684;9.758;2023-04-02T20:37:53;0.97;;;0.70;;
5650;SDS011;40241;52.684;9.758;2023-04-02T20:40:18;2.10;;;0.70;;
5650;SDS011;40241;52.684;9.758;2023-04-02T20:42:44;2.53;;;0.60;;
5650;SDS011;40241;52.684;9.758;2023-04-02T20:45:09;2.30;;;0.60;;
5650;SDS011;40241;52.684;9.758;2023-04-02T20:47:35;1.60;;;0.63;;
5650;SDS011;40241;52.684;9.758;2023-04-02T20:50:00;9.10;;;1.20;;
5650;SDS011;40241;52.684;9.758;2023-04-02T20:52:26;3.47;;;0.50;;
5650;SDS011;40241;52.684;9.758;2023-04-02T20:54:54;1.97;;;0.90;;
5650;SDS011;40241;52.684;9.758;2023-04-02T20:57:20;2.70;;;0.90;;
5650;SDS011;40241;52.684;9.758;2023-04-02T20:59:46;1.50;;;0.60;;
5650;SDS011;40241;52.684;9.758;2023-04-02T21:02:11;5.33;;;0.80;;
5650;SDS011;40241;52.684;9.758;2023-04-02T21:04:36;3.57;;;0.73;;
5650;SDS011;40241;52.684;9.758;2023-04-02T21:07:02;1.07;;;0.60;;
5650;SDS011;40241;52.684;9.758;2023-04-02T21:09:27;2.60;;;1.00;;
5650;SDS011;40241;52.684;9.758;2023-04-02T21:11:52;0.83;;;0.77;;
5650;SDS011;40241;52.684;9.758;2023-04-02T21:14:18;1.13;;;0.80;;
5650;SDS011;40241;52.684;9.758;2023-04-02T21:16:43;2.70;;;0.97;;
5650;SDS011;40241;52.684;9.758;2023-04-02T21:19:09;4.30;;;0.80;;
5650;SDS011;40241;52.684;9.758;2023-04-02T21:21:35;1.70;;;1.17;;
5650;SDS011;40241;52.684;9.758;2023-04-02T21:24:02;4.00;;;1.30;;
5650;SDS011;40241;52.684;9.758;2023-04-02T21:26:31;3.23;;;0.70;;
5650;SDS011;40241;52.684;9.758;2023-04-02T21:28:58;1.00;;;0.83;;
5650;SDS011;40241;52.684;9.758;2023-04-02T21:31:24;3.23;;;0.70;;